createdAt,value
2022-08-27T00:00:21.862Z,54639.63
2022-08-27T00:01:25.423Z,54613.57
2022-08-27T00:02:28.279Z,54617.57
2022-08-27T00:03:31.216Z,54590.51
2022-08-27T00:04:34.160Z,54574.47
2022-08-27T00:05:37.187Z,54607.55
2022-08-27T00:06:41.682Z,54597.53
2022-08-27T00:07:44.466Z,54561.44
2022-08-27T00:08:47.728Z,54542.39
2022-08-27T00:09:50.915Z,54535.37
2022-08-27T00:10:53.783Z,54529.36
2022-08-27T00:11:57.175Z,54559.43
2022-08-27T00:13:07.034Z,54492.27
2022-08-27T00:14:09.892Z,54499.29
2022-08-27T00:15:13.384Z,54487.26
2022-08-27T00:16:18.385Z,54444.16
2022-08-27T00:17:20.869Z,54455.18
2022-08-27T00:18:23.950Z,54468.21
2022-08-27T00:19:26.724Z,54479.24
2022-08-27T00:20:29.703Z,54477.23
2022-08-27T00:21:32.467Z,54495.28
2022-08-27T00:22:35.239Z,54517.33
2022-08-27T00:23:38.114Z,54651.66
2022-08-27T00:24:48.829Z,54695.77
2022-08-27T00:25:45.396Z,54695.77
2022-08-27T00:26:48.688Z,54807.04
2022-08-27T00:27:51.564Z,54882.23
2022-08-27T00:28:54.854Z,55013.56
2022-08-27T00:29:57.818Z,55082.74
2022-08-27T00:31:01.383Z,55121.84
2022-08-27T00:32:04.548Z,55119.84
2022-08-27T00:33:07.362Z,56394.31
2022-08-27T00:34:13.157Z,57469.57
2022-08-27T00:35:15.049Z,58186.90
2022-08-27T00:36:18.039Z,58945.50
2022-08-27T00:37:21.218Z,59220.48
2022-08-27T00:38:24.212Z,59454.34
2022-08-27T00:39:27.180Z,59486.45
2022-08-27T00:40:30.253Z,59563.73
2022-08-27T00:41:33.535Z,59592.84
2022-08-27T00:42:36.416Z,59661.10
2022-08-27T00:43:39.385Z,59749.43
2022-08-27T00:44:43.081Z,59860.84
2022-08-27T00:45:49.084Z,59829.73
2022-08-27T00:46:51.804Z,59743.40
2022-08-27T00:47:54.884Z,59585.82
2022-08-27T00:48:58.473Z,59432.25
2022-08-27T00:50:01.450Z,59107.08
2022-08-27T00:51:04.018Z,58945.50
2022-08-27T00:52:18.685Z,58698.64
2022-08-27T00:53:21.980Z,58521.03
2022-08-27T00:54:24.826Z,58291.25
2022-08-27T00:55:28.671Z,58061.48
2022-08-27T00:56:31.918Z,57798.62
2022-08-27T00:57:42.982Z,57673.21
2022-08-27T00:58:45.644Z,57494.64
2022-08-27T00:59:49.140Z,57360.22
2022-08-27T01:00:52.817Z,57228.81
2022-08-27T01:01:55.787Z,57099.41
2022-08-27T01:02:59.907Z,56647.05
2022-08-27T01:04:09.498Z,56419.39
2022-08-27T01:05:12.326Z,56264.94
2022-08-27T01:06:16.241Z,55340.41
2022-08-27T01:07:19.086Z,55309.32
2022-08-27T01:08:22.098Z,55223.10
2022-08-27T01:09:26.992Z,55235.13
2022-08-27T01:10:35.288Z,55316.34
2022-08-27T01:11:38.060Z,55360.46
2022-08-27T01:12:40.977Z,56263.94
2022-08-27T01:13:59.200Z,56382.28
2022-08-27T01:14:57.136Z,56843.64
2022-08-27T01:16:00.939Z,57213.77
2022-08-27T01:17:03.909Z,57661.18
2022-08-27T01:18:09.525Z,57986.23
2022-08-27T01:19:12.448Z,58245.09
2022-08-27T01:20:16.422Z,58573.21
2022-08-27T01:21:19.502Z,58802.00
2022-08-27T01:22:23.443Z,58988.66
2022-08-27T01:24:52.256Z,59057.91
2022-08-27T01:25:55.060Z,59229.52
2022-08-27T01:26:58.136Z,59330.89
2022-08-27T01:28:01.745Z,59478.42
2022-08-27T01:29:07.787Z,59540.65
2022-08-27T01:30:13.732Z,59469.39
2022-08-27T01:31:17.003Z,59572.77
2022-08-27T01:32:19.792Z,59759.46
2022-08-27T01:33:24.927Z,59780.54
2022-08-27T01:34:28.101Z,59959.21
2022-08-27T01:35:30.966Z,60176.04
2022-08-27T01:36:35.686Z,60233.26
2022-08-27T01:37:40.670Z,60321.60
2022-08-27T01:38:43.681Z,60365.77
2022-08-27T01:39:46.873Z,60361.76
2022-08-27T01:40:52.705Z,60424.00
2022-08-27T01:41:56.823Z,60367.78
2022-08-27T01:42:59.707Z,60414.96
2022-08-27T01:44:06.884Z,60351.72
2022-08-27T01:45:09.546Z,60414.96
2022-08-27T01:46:12.472Z,60597.68
2022-08-27T01:47:15.099Z,60618.77
2022-08-27T01:48:18.164Z,60695.07
2022-08-27T01:50:45.005Z,60855.71
2022-08-27T01:51:47.598Z,61343.70
2022-08-27T01:52:50.659Z,61333.65
2022-08-27T01:53:53.628Z,61234.25
2022-08-27T01:54:56.401Z,61211.15
2022-08-27T01:55:59.589Z,61104.71
2022-08-27T01:57:02.460Z,60843.66
2022-08-27T01:58:05.952Z,60858.72
2022-08-27T01:59:08.933Z,60817.55
2022-08-27T02:00:12.621Z,60767.36
2022-08-27T02:01:15.783Z,60642.86
2022-08-27T02:02:18.992Z,60459.14
2022-08-27T02:03:21.953Z,60348.71
2022-08-27T02:04:25.045Z,60133.88
2022-08-27T02:05:28.012Z,60078.67
2022-08-27T02:06:31.298Z,60384.85
2022-08-27T02:07:34.062Z,60561.54
2022-08-27T02:08:37.042Z,60642.86
2022-08-27T02:09:40.222Z,60614.75
2022-08-27T02:10:43.203Z,60801.49
2022-08-27T02:11:46.277Z,61300.52
2022-08-27T02:12:49.259Z,61671.06
2022-08-27T02:13:52.230Z,61575.66
2022-08-27T02:14:54.801Z,61514.40
2022-08-27T02:15:57.858Z,61546.54
2022-08-27T02:17:00.656Z,61929.16
2022-08-27T02:18:03.924Z,61873.92
2022-08-27T02:19:06.614Z,61814.67
2022-08-27T02:20:10.924Z,61739.35
2022-08-27T02:21:13.589Z,61705.21
2022-08-27T02:22:16.459Z,61639.93
2022-08-27T02:23:19.131Z,61536.50
2022-08-27T02:24:21.919Z,61514.40
2022-08-27T02:25:24.785Z,61359.76
2022-08-27T02:26:27.751Z,61194.08
2022-08-27T02:27:33.901Z,61333.65
2022-08-27T02:28:39.748Z,61693.15
2022-08-27T02:29:42.782Z,61753.41
2022-08-27T02:30:45.599Z,61682.11
2022-08-27T02:31:48.660Z,61600.77
2022-08-27T02:32:51.766Z,61521.43
2022-08-27T02:33:54.434Z,61424.03
2022-08-27T02:34:57.100Z,61396.92
2022-08-27T02:35:59.867Z,61393.90
2022-08-27T02:37:02.539Z,61334.66
2022-08-27T02:38:05.227Z,61306.54
2022-08-27T02:39:07.981Z,61279.43
2022-08-27T02:40:10.801Z,61229.22
2022-08-27T02:41:13.664Z,61173.00
2022-08-27T02:42:16.406Z,61141.87
2022-08-27T02:43:25.208Z,61111.75
2022-08-27T02:44:23.695Z,60978.20
2022-08-27T02:45:27.792Z,60991.25
2022-08-27T02:46:30.775Z,60881.81
2022-08-27T02:47:33.645Z,60861.73
2022-08-27T02:48:37.035Z,60728.20
2022-08-27T02:49:40.231Z,60620.77
2022-08-27T02:50:53.873Z,60517.37
2022-08-27T02:51:56.740Z,60361.76
2022-08-27T02:53:08.449Z,60188.09
2022-08-27T02:54:23.254Z,60074.65
2022-08-27T02:55:27.890Z,59897.98
2022-08-27T02:56:30.844Z,59733.37
2022-08-27T02:57:36.687Z,59582.81
2022-08-27T02:58:39.161Z,59422.22
2022-08-27T03:01:17.344Z,58958.55
2022-08-27T03:02:20.520Z,58712.69
2022-08-27T03:03:23.760Z,58534.07
2022-08-27T03:04:28.354Z,58392.59
2022-08-27T03:05:31.442Z,58239.07
2022-08-27T03:07:52.961Z,57980.21
2022-08-27T03:08:55.722Z,57846.78
2022-08-27T03:11:19.622Z,57639.11
2022-08-27T03:12:22.981Z,57643.12
2022-08-27T03:13:27.279Z,57545.81
2022-08-27T03:14:32.420Z,57512.70
2022-08-27T03:15:35.511Z,57448.50
2022-08-27T03:17:59.085Z,57409.38
2022-08-27T03:19:02.566Z,57428.44
2022-08-27T03:20:05.335Z,57434.46
2022-08-27T03:21:16.207Z,57367.25
2022-08-27T03:22:20.868Z,57320.10
2022-08-27T03:23:23.777Z,57283.98
2022-08-27T03:24:27.267Z,57353.20
2022-08-27T03:25:31.904Z,57421.41
2022-08-27T03:26:36.506Z,57567.88
2022-08-27T03:27:39.796Z,57709.33
2022-08-27T03:28:43.584Z,57734.41
2022-08-27T03:29:47.167Z,57731.40
2022-08-27T03:30:50.578Z,57653.15
2022-08-27T03:31:53.749Z,57704.32
2022-08-27T03:32:56.732Z,57782.57
2022-08-27T03:33:59.701Z,57999.28
2022-08-27T03:35:02.366Z,58274.19
2022-08-27T03:36:05.964Z,58574.21
2022-08-27T03:37:08.728Z,58829.09
2022-08-27T03:38:12.178Z,59095.04
2022-08-27T03:39:15.809Z,59255.61
2022-08-27T03:40:18.861Z,59572.77
2022-08-27T03:41:21.873Z,59590.84
2022-08-27T03:42:26.170Z,59570.76
2022-08-27T03:43:29.775Z,59733.37
2022-08-27T03:44:32.591Z,59928.10
2022-08-27T03:45:40.915Z,60129.86
2022-08-27T03:46:40.789Z,60285.46
2022-08-27T03:47:45.775Z,60442.07
2022-08-27T03:48:48.857Z,60600.69
2022-08-27T03:49:53.452Z,60621.78
2022-08-27T03:50:56.243Z,60715.15
2022-08-27T03:51:59.412Z,60742.25
2022-08-27T03:53:05.251Z,60832.62
2022-08-27T03:54:08.328Z,60834.63
2022-08-27T03:55:11.316Z,60827.60
2022-08-27T03:56:14.808Z,60897.88
2022-08-27T03:57:18.321Z,60932.02
2022-08-27T03:58:21.083Z,60978.20
2022-08-27T03:59:23.736Z,60962.14
2022-08-27T04:00:26.922Z,61005.31
2022-08-27T04:01:30.137Z,61029.41
2022-08-27T04:02:32.993Z,61141.87
2022-08-27T04:03:35.849Z,61243.28
2022-08-27T04:04:39.020Z,61330.64
2022-08-27T04:05:41.927Z,61241.27
2022-08-27T04:06:46.225Z,61326.62
2022-08-27T04:07:49.300Z,61393.90
2022-08-27T04:08:52.059Z,61482.27
2022-08-27T04:09:54.927Z,61594.74
2022-08-27T04:10:57.824Z,61511.39
2022-08-27T04:12:00.699Z,61442.11
2022-08-27T04:13:03.458Z,61433.07
2022-08-27T04:14:14.532Z,61543.52
2022-08-27T04:15:11.057Z,61498.34
2022-08-27T04:16:13.778Z,61619.84
2022-08-27T04:17:16.726Z,61668.05
2022-08-27T04:18:19.469Z,61675.08
2022-08-27T04:19:26.898Z,61650.98
2022-08-27T04:20:35.701Z,61687.13
2022-08-27T04:21:31.981Z,61699.18
2022-08-27T04:22:35.063Z,61707.21
2022-08-27T04:23:37.956Z,61637.92
2022-08-27T04:24:40.811Z,61625.87
2022-08-27T04:25:43.603Z,61640.93
2022-08-27T04:26:46.662Z,61673.07
2022-08-27T04:27:49.742Z,61669.05
2022-08-27T04:28:52.628Z,61635.91
2022-08-27T04:29:55.392Z,61650.98
2022-08-27T04:30:58.364Z,61634.91
2022-08-27T04:32:01.338Z,61746.38
2022-08-27T04:33:04.022Z,61642.94
2022-08-27T04:34:07.006Z,61626.88
2022-08-27T04:35:09.758Z,61609.80
2022-08-27T04:36:12.545Z,61694.16
2022-08-27T04:37:15.208Z,61755.42
2022-08-27T04:38:19.821Z,61764.46
2022-08-27T04:39:22.600Z,61735.33
2022-08-27T04:40:25.628Z,61624.87
2022-08-27T04:41:28.439Z,61706.21
2022-08-27T04:42:32.052Z,61731.32
2022-08-27T04:43:35.014Z,61757.43
2022-08-27T04:44:37.894Z,61738.34
2022-08-27T04:45:40.763Z,61721.27
2022-08-27T04:46:48.396Z,61740.35
2022-08-27T04:47:48.062Z,61719.27
2022-08-27T04:48:51.020Z,61713.24
2022-08-27T04:49:54.104Z,61745.38
2022-08-27T04:50:56.987Z,61650.98
2022-08-27T04:52:00.248Z,61599.76
2022-08-27T04:53:03.432Z,61600.77
2022-08-27T04:54:07.847Z,61568.63
2022-08-27T04:55:11.124Z,61562.61
2022-08-27T04:56:14.580Z,61583.70
2022-08-27T04:57:17.587Z,61588.71
2022-08-27T04:58:20.693Z,61670.06
2022-08-27T04:59:23.767Z,61666.04
2022-08-27T05:00:26.830Z,61685.12
2022-08-27T05:01:29.936Z,61675.08
2022-08-27T05:02:32.784Z,61705.21
2022-08-27T05:03:35.764Z,61688.13
2022-08-27T05:04:39.260Z,61689.14
2022-08-27T05:05:42.806Z,61676.08
2022-08-27T05:06:46.327Z,61687.13
2022-08-27T05:07:50.058Z,61636.92
2022-08-27T05:08:53.110Z,61610.81
2022-08-27T05:09:55.886Z,61614.82
2022-08-27T05:10:58.848Z,61598.76
2022-08-27T05:12:02.239Z,61592.73
2022-08-27T05:13:05.417Z,61559.59
2022-08-27T05:14:08.600Z,61552.56
2022-08-27T05:15:11.678Z,61490.30
2022-08-27T05:16:14.918Z,61480.26
2022-08-27T05:17:19.068Z,61502.36
2022-08-27T05:18:22.657Z,61433.07
2022-08-27T05:19:26.150Z,61482.27
2022-08-27T05:20:29.430Z,61544.53
2022-08-27T05:21:32.924Z,61542.52
2022-08-27T05:22:35.999Z,61512.39
2022-08-27T05:23:39.493Z,61459.18
2022-08-27T05:24:45.015Z,61363.78
2022-08-27T05:25:47.387Z,61319.59
2022-08-27T05:26:50.569Z,61289.47
2022-08-27T05:27:53.750Z,61251.32
2022-08-27T05:28:56.636Z,61274.41
2022-08-27T05:30:00.021Z,61315.58
2022-08-27T05:31:03.132Z,61372.82
2022-08-27T05:32:06.380Z,61350.73
2022-08-27T05:33:09.457Z,61372.82
2022-08-27T05:34:16.811Z,61360.77
2022-08-27T05:35:17.148Z,61404.95
2022-08-27T05:36:20.027Z,61373.82
2022-08-27T05:37:23.326Z,61438.09
2022-08-27T05:38:26.399Z,61464.20
2022-08-27T05:39:29.168Z,61436.08
2022-08-27T05:40:32.544Z,61349.72
2022-08-27T05:41:35.420Z,61465.20
2022-08-27T05:42:38.397Z,61449.13
2022-08-27T05:43:41.417Z,61494.32
2022-08-27T05:44:44.561Z,61469.21
2022-08-27T05:45:47.849Z,61443.11
2022-08-27T05:46:50.947Z,61441.10
2022-08-27T05:47:54.312Z,61494.32
2022-08-27T05:48:57.183Z,61450.14
2022-08-27T05:50:00.469Z,61431.06
2022-08-27T05:51:03.945Z,61472.23
2022-08-27T05:52:06.829Z,61471.23
2022-08-27T05:53:09.606Z,61587.71
2022-08-27T05:54:12.589Z,61540.51
2022-08-27T05:55:15.762Z,61604.78
2022-08-27T05:56:18.648Z,61584.70
2022-08-27T05:57:21.726Z,61589.72
2022-08-27T05:58:25.429Z,61589.72
2022-08-27T05:59:28.720Z,61589.72
2022-08-27T06:00:31.779Z,61586.71
2022-08-27T06:01:35.782Z,61564.61
2022-08-27T06:02:39.114Z,61596.75
2022-08-27T06:03:42.241Z,61642.94
2022-08-27T06:04:45.320Z,61648.97
2022-08-27T06:05:48.608Z,61618.84
2022-08-27T06:06:52.103Z,61637.92
2022-08-27T06:07:55.911Z,61713.24
2022-08-27T06:08:59.295Z,61712.23
2022-08-27T06:10:02.697Z,61660.02
2022-08-27T06:11:05.246Z,61618.84
2022-08-27T06:12:08.626Z,61544.53
2022-08-27T06:13:11.491Z,61540.51
2022-08-27T06:14:14.677Z,61567.63
2022-08-27T06:15:17.860Z,61550.55
2022-08-27T06:16:21.024Z,61485.28
2022-08-27T06:17:24.328Z,61447.12
2022-08-27T06:18:27.608Z,61431.06
2022-08-27T06:19:34.061Z,61475.24
2022-08-27T06:20:37.144Z,61470.22
2022-08-27T06:21:40.430Z,61471.23
2022-08-27T06:22:43.914Z,61498.34
2022-08-27T06:23:47.102Z,61430.05
2022-08-27T06:24:50.380Z,61481.27
2022-08-27T06:25:53.665Z,61464.20
2022-08-27T06:26:57.152Z,61497.33
2022-08-27T06:28:03.288Z,61413.99
2022-08-27T06:29:07.514Z,61436.08
2022-08-27T06:30:12.729Z,61429.05
2022-08-27T06:31:15.176Z,61409.97
2022-08-27T06:32:18.286Z,61366.79
2022-08-27T06:33:21.582Z,61391.89
2022-08-27T06:34:24.870Z,61377.84
2022-08-27T06:35:32.231Z,61362.77
2022-08-27T06:36:32.868Z,61329.64
2022-08-27T06:37:35.943Z,61392.90
2022-08-27T06:38:39.226Z,61353.74
2022-08-27T06:39:42.502Z,61309.55
2022-08-27T06:40:46.104Z,61293.49
2022-08-27T06:41:49.278Z,61310.56
2022-08-27T06:42:52.252Z,61323.61
2022-08-27T06:43:55.436Z,61332.65
2022-08-27T06:44:58.730Z,61307.55
2022-08-27T06:46:02.052Z,61274.41
2022-08-27T06:47:05.087Z,61280.43
2022-08-27T06:48:08.312Z,61253.32
2022-08-27T06:49:11.042Z,61258.34
2022-08-27T06:50:17.623Z,61228.22
2022-08-27T06:51:18.252Z,61222.20
2022-08-27T06:52:21.101Z,61211.15
2022-08-27T06:53:24.291Z,61247.30
2022-08-27T06:54:27.265Z,61224.20
2022-08-27T06:55:33.126Z,61199.10
2022-08-27T06:56:34.558Z,61186.05
2022-08-27T06:57:37.720Z,61193.07
2022-08-27T06:58:40.806Z,61175.00
2022-08-27T06:59:43.882Z,61132.83
2022-08-27T07:00:49.000Z,61179.02
2022-08-27T07:01:51.605Z,61168.98
2022-08-27T07:02:55.065Z,61108.73
2022-08-27T07:03:58.451Z,61122.79
2022-08-27T07:05:01.632Z,61102.71
2022-08-27T07:06:04.710Z,61079.61
2022-08-27T07:07:07.609Z,61032.42
2022-08-27T07:08:10.624Z,61076.60
2022-08-27T07:09:13.541Z,61001.29
2022-08-27T07:10:16.730Z,60982.22
2022-08-27T07:11:19.912Z,60996.27
2022-08-27T07:12:23.191Z,60971.17
2022-08-27T07:13:27.499Z,60890.85
2022-08-27T07:14:35.434Z,60886.84
2022-08-27T07:15:35.140Z,60858.72
2022-08-27T07:16:40.891Z,60833.62
2022-08-27T07:17:43.811Z,60781.41
2022-08-27T07:18:46.904Z,60787.43
2022-08-27T07:19:49.768Z,60736.23
2022-08-27T07:20:52.644Z,60679.00
2022-08-27T07:21:55.722Z,60618.77
2022-08-27T07:22:58.489Z,60602.70
2022-08-27T07:24:01.466Z,60602.70
2022-08-27T07:25:04.357Z,60563.55
2022-08-27T07:26:07.223Z,60530.42
2022-08-27T07:27:10.223Z,60471.18
2022-08-27T07:28:13.068Z,60447.09
2022-08-27T07:29:15.739Z,60417.98
2022-08-27T07:30:18.611Z,60385.85
2022-08-27T07:31:21.745Z,60383.84
2022-08-27T07:32:30.539Z,60392.88
2022-08-27T07:33:28.972Z,60347.70
2022-08-27T07:34:31.750Z,60329.63
2022-08-27T07:35:35.029Z,60313.57
2022-08-27T07:36:38.219Z,60307.55
2022-08-27T07:37:41.197Z,60250.33
2022-08-27T07:38:44.477Z,60247.32
2022-08-27T07:39:48.794Z,60268.39
2022-08-27T07:40:52.124Z,60240.29
2022-08-27T07:41:55.375Z,60213.18
2022-08-27T07:42:58.433Z,60227.24
2022-08-27T07:44:01.721Z,60193.11
2022-08-27T07:45:04.688Z,60154.96
2022-08-27T07:46:09.208Z,60180.05
2022-08-27T07:47:12.099Z,60169.02
2022-08-27T07:48:15.480Z,60149.94
2022-08-27T07:49:18.857Z,60157.97
2022-08-27T07:50:22.135Z,60173.03
2022-08-27T07:51:25.429Z,60174.03
2022-08-27T07:52:28.504Z,60149.94
2022-08-27T07:53:31.475Z,60159.98
2022-08-27T07:54:34.970Z,60151.95
2022-08-27T07:55:37.951Z,60215.19
2022-08-27T07:56:41.022Z,60167.01
2022-08-27T07:57:43.900Z,60138.90
2022-08-27T07:58:47.082Z,60118.82
2022-08-27T07:59:50.788Z,60082.68
2022-08-27T08:00:53.661Z,60081.68
2022-08-27T08:01:56.908Z,60095.73
2022-08-27T08:03:00.191Z,60051.57
2022-08-27T08:04:03.711Z,60025.46
2022-08-27T08:05:07.105Z,60009.41
2022-08-27T08:06:10.490Z,59950.18
2022-08-27T08:07:13.574Z,59893.97
2022-08-27T08:08:16.638Z,59857.83
2022-08-27T08:09:19.827Z,59791.58
2022-08-27T08:10:23.306Z,59668.12
2022-08-27T08:11:26.593Z,59646.04
2022-08-27T08:12:29.885Z,59579.80
2022-08-27T08:13:33.470Z,59546.67
2022-08-27T08:14:36.557Z,59468.39
2022-08-27T08:15:40.140Z,59383.07
2022-08-27T08:16:43.157Z,59338.91
2022-08-27T08:17:46.401Z,59227.51
2022-08-27T08:18:49.586Z,59168.30
2022-08-27T08:20:15.455Z,59133.17
2022-08-27T08:20:58.816Z,59116.11
2022-08-27T08:22:05.595Z,59086.00
2022-08-27T08:23:06.508Z,59127.15
2022-08-27T08:24:11.122Z,59098.05
2022-08-27T08:25:14.011Z,59078.98
2022-08-27T08:26:17.500Z,59013.75
2022-08-27T08:27:20.768Z,59002.71
2022-08-27T08:28:23.962Z,58925.43
2022-08-27T08:29:27.147Z,58844.15
2022-08-27T08:30:31.341Z,58776.91
2022-08-27T08:31:35.248Z,58700.65
2022-08-27T08:32:38.420Z,58612.34
2022-08-27T08:33:41.609Z,58599.30
2022-08-27T08:34:44.786Z,58560.16
2022-08-27T08:35:47.668Z,58528.05
2022-08-27T08:36:55.150Z,58467.85
2022-08-27T08:37:56.785Z,58387.57
2022-08-27T08:38:59.761Z,58387.57
2022-08-27T08:40:03.111Z,58302.29
2022-08-27T08:41:06.543Z,58227.03
2022-08-27T08:42:10.158Z,58191.92
2022-08-27T08:43:12.906Z,58128.71
2022-08-27T08:44:15.777Z,58092.59
2022-08-27T08:45:18.546Z,58067.50
2022-08-27T08:46:21.734Z,58013.32
2022-08-27T08:47:24.504Z,57943.09
2022-08-27T08:48:27.176Z,57829.72
2022-08-27T08:49:30.257Z,57781.57
2022-08-27T08:50:34.166Z,57711.34
2022-08-27T08:51:37.226Z,57644.12
2022-08-27T08:52:40.322Z,57599.98
2022-08-27T08:53:43.280Z,57503.68
2022-08-27T08:54:46.065Z,57395.33
2022-08-27T08:55:48.827Z,57395.33
2022-08-27T08:56:54.937Z,57434.46
2022-08-27T08:57:56.117Z,57361.23
2022-08-27T08:58:58.885Z,57330.13
2022-08-27T09:00:02.305Z,57275.96
2022-08-27T09:01:05.233Z,57247.87
2022-08-27T09:02:11.382Z,57215.77
2022-08-27T09:03:12.743Z,57214.77
2022-08-27T09:04:15.898Z,57175.65
2022-08-27T09:05:18.723Z,57096.41
2022-08-27T09:06:21.784Z,56967.01
2022-08-27T09:07:24.544Z,56590.89
2022-08-27T09:08:40.453Z,56473.54
2022-08-27T09:09:32.150Z,56347.18
2022-08-27T09:10:35.121Z,56286.00
2022-08-27T09:11:38.095Z,56199.76
2022-08-27T09:12:41.277Z,55319.35
2022-08-27T09:13:44.561Z,55297.30
2022-08-27T09:14:47.538Z,55239.14
2022-08-27T09:15:50.628Z,55230.12
2022-08-27T09:16:56.723Z,55161.95
2022-08-27T09:17:58.327Z,55156.93
2022-08-27T09:19:01.185Z,55187.01
2022-08-27T09:20:04.166Z,55105.80
2022-08-27T09:21:08.786Z,55052.66
2022-08-27T09:22:11.662Z,55039.63
2022-08-27T09:23:14.639Z,55025.59
2022-08-27T09:24:17.507Z,54978.47
2022-08-27T09:25:21.159Z,55001.53
2022-08-27T09:26:24.277Z,54989.50
2022-08-27T09:27:27.365Z,54960.43
2022-08-27T09:28:30.441Z,54963.43
2022-08-27T09:29:33.831Z,54920.32
2022-08-27T09:30:36.839Z,54914.31
2022-08-27T09:31:39.576Z,54922.33
2022-08-27T09:32:42.761Z,54930.35
2022-08-27T09:33:56.201Z,54879.22
2022-08-27T09:34:50.658Z,54857.17
2022-08-27T09:35:53.734Z,54874.21
2022-08-27T09:36:56.713Z,54821.08
2022-08-27T09:37:59.789Z,54839.12
2022-08-27T09:39:02.672Z,54842.13
2022-08-27T09:40:05.791Z,54829.10
2022-08-27T09:41:10.057Z,54874.21
2022-08-27T09:42:12.727Z,54820.07
2022-08-27T09:43:15.392Z,54886.24
2022-08-27T09:44:18.266Z,54839.12
2022-08-27T09:45:21.859Z,54868.20
2022-08-27T09:46:24.708Z,54860.18
2022-08-27T09:47:28.939Z,54854.16
2022-08-27T09:48:32.023Z,54864.19
2022-08-27T09:49:35.003Z,54832.11
2022-08-27T09:50:42.977Z,54823.08
2022-08-27T09:51:42.584Z,54818.07
2022-08-27T09:52:45.360Z,54782.98
2022-08-27T09:53:48.233Z,54820.07
2022-08-27T09:54:52.647Z,54785.99
2022-08-27T09:55:55.622Z,54811.05
2022-08-27T09:56:58.702Z,54795.01
2022-08-27T09:58:01.591Z,54791.00
2022-08-27T09:59:04.863Z,54769.95
2022-08-27T10:00:08.349Z,54734.86
2022-08-27T10:01:11.673Z,54721.83
2022-08-27T10:02:14.709Z,54726.84
2022-08-27T10:03:17.994Z,54747.89
2022-08-27T10:04:21.229Z,54689.75
2022-08-27T10:05:24.053Z,54702.79
2022-08-27T10:06:27.025Z,54701.78
2022-08-27T10:07:29.805Z,54675.72
2022-08-27T10:08:32.682Z,54695.77
2022-08-27T10:09:35.346Z,54647.65
2022-08-27T10:10:38.322Z,54687.75
2022-08-27T10:11:42.731Z,54665.69
2022-08-27T10:12:45.606Z,54659.68
2022-08-27T10:13:48.480Z,54638.63
2022-08-27T10:14:51.468Z,54673.71
2022-08-27T10:15:54.124Z,54637.63
2022-08-27T10:16:57.076Z,54616.57
2022-08-27T10:18:00.183Z,54615.57
2022-08-27T10:19:04.499Z,54579.48
2022-08-27T10:20:07.373Z,54601.54
2022-08-27T10:21:10.144Z,54592.52
2022-08-27T10:22:13.628Z,54579.48
2022-08-27T10:23:16.505Z,54545.40
2022-08-27T10:24:19.272Z,54583.49
2022-08-27T10:25:21.944Z,54580.48
2022-08-27T10:26:24.511Z,54547.40
2022-08-27T10:27:27.488Z,54547.40
2022-08-27T10:28:30.474Z,54534.37
2022-08-27T10:29:33.747Z,54519.34
2022-08-27T10:30:36.733Z,54524.35
2022-08-27T10:31:40.198Z,54504.30
2022-08-27T10:32:43.504Z,54505.30
2022-08-27T10:33:47.088Z,54527.36
2022-08-27T10:34:50.782Z,54467.21
2022-08-27T10:35:54.565Z,54467.21
2022-08-27T10:36:58.378Z,54466.21
2022-08-27T10:38:01.558Z,54467.21
2022-08-27T10:39:04.330Z,54475.23
2022-08-27T10:40:07.383Z,54488.26
2022-08-27T10:41:10.078Z,54465.21
2022-08-27T10:42:13.057Z,54499.29
2022-08-27T10:43:15.828Z,54478.24
2022-08-27T10:44:18.705Z,54485.25
2022-08-27T10:45:30.826Z,54463.20
2022-08-27T10:46:27.163Z,54422.10
2022-08-27T10:47:30.299Z,54447.16
2022-08-27T10:48:33.581Z,54449.17
2022-08-27T10:49:36.772Z,54454.18
2022-08-27T10:50:40.467Z,54477.23
2022-08-27T10:51:43.434Z,54438.14
2022-08-27T10:52:47.333Z,54434.13
2022-08-27T10:53:51.847Z,54446.16
2022-08-27T10:54:54.724Z,54428.12
2022-08-27T10:55:57.801Z,54438.14
2022-08-27T10:57:24.582Z,54415.09
2022-08-27T10:58:05.801Z,54435.13
2022-08-27T10:59:08.472Z,54444.16
2022-08-27T11:00:11.244Z,54428.12
2022-08-27T11:01:13.813Z,54430.12
2022-08-27T11:02:16.875Z,54388.02
2022-08-27T11:03:20.082Z,54375.99
2022-08-27T11:04:23.174Z,54431.12
2022-08-27T11:05:26.149Z,54399.05
2022-08-27T11:06:29.113Z,54382.01
2022-08-27T11:07:31.976Z,54385.02
2022-08-27T11:08:34.749Z,54395.04
2022-08-27T11:09:37.728Z,54411.07
2022-08-27T11:10:40.808Z,54372.98
2022-08-27T11:12:48.100Z,54397.04
2022-08-27T11:13:50.968Z,54342.91
2022-08-27T11:14:53.851Z,54382.01
2022-08-27T11:15:56.507Z,54367.97
2022-08-27T11:16:59.396Z,54386.02
2022-08-27T11:18:02.263Z,54409.07
2022-08-27T11:19:05.039Z,54409.07
2022-08-27T11:20:08.425Z,54393.03
2022-08-27T11:21:11.328Z,54401.05
2022-08-27T11:22:14.869Z,54434.13
2022-08-27T11:23:18.856Z,54413.08
2022-08-27T11:24:21.862Z,54410.07
2022-08-27T11:25:25.045Z,54398.05
2022-08-27T11:26:28.232Z,54402.05
2022-08-27T11:27:31.823Z,54365.97
2022-08-27T11:28:35.208Z,54366.97
2022-08-27T11:29:38.391Z,54411.07
2022-08-27T11:30:43.363Z,54372.98
2022-08-27T11:31:46.646Z,54385.02
2022-08-27T11:32:49.826Z,54378.00
2022-08-27T11:33:53.268Z,54409.07
2022-08-27T11:34:56.752Z,54382.01
2022-08-27T11:36:00.349Z,54399.05
2022-08-27T11:37:03.236Z,54429.12
2022-08-27T11:38:06.310Z,54369.98
2022-08-27T11:39:09.221Z,54371.98
2022-08-27T11:40:12.322Z,54379.00
2022-08-27T11:41:15.331Z,54378.00
2022-08-27T11:42:18.511Z,54399.05
2022-08-27T11:43:21.697Z,54397.04
2022-08-27T11:44:24.674Z,54392.03
2022-08-27T11:45:27.858Z,54395.04
2022-08-27T11:46:31.278Z,54397.04
2022-08-27T11:47:34.525Z,54377.00
2022-08-27T11:48:39.150Z,54406.06
2022-08-27T11:49:42.114Z,54364.96
2022-08-27T11:50:45.619Z,54373.99
2022-08-27T11:51:49.410Z,54369.98
2022-08-27T11:52:52.493Z,54374.99
2022-08-27T11:53:56.080Z,54370.98
2022-08-27T11:54:59.159Z,54374.99
2022-08-27T11:56:02.551Z,54368.98
2022-08-27T11:57:05.426Z,54378.00
2022-08-27T11:58:08.782Z,54369.98
2022-08-27T11:59:11.888Z,54372.98
2022-08-27T12:00:14.970Z,54332.89
2022-08-27T12:01:17.752Z,54360.96
2022-08-27T12:02:20.812Z,54351.93
2022-08-27T12:03:25.686Z,54352.94
2022-08-27T12:04:28.962Z,54335.90
2022-08-27T12:05:32.110Z,54330.89
2022-08-27T12:06:35.598Z,54391.03
2022-08-27T12:07:38.777Z,54353.94
2022-08-27T12:08:41.963Z,54356.95
2022-08-27T12:09:45.246Z,54366.97
2022-08-27T12:10:48.842Z,54422.10
2022-08-27T12:11:56.405Z,54353.94
2022-08-27T12:13:00.700Z,54370.98
2022-08-27T12:14:03.105Z,54403.06
2022-08-27T12:15:05.862Z,54391.03
2022-08-27T12:16:09.158Z,54403.06
2022-08-27T12:17:12.113Z,54387.02
2022-08-27T12:18:15.093Z,54381.00
2022-08-27T12:19:18.069Z,54395.04
2022-08-27T12:20:21.151Z,54374.99
2022-08-27T12:21:24.342Z,54379.00
2022-08-27T12:22:27.423Z,54413.08
2022-08-27T12:23:30.904Z,54414.09
2022-08-27T12:24:33.976Z,54367.97
2022-08-27T12:25:37.364Z,54406.06
2022-08-27T12:26:40.146Z,54394.04
2022-08-27T12:27:43.427Z,54387.02
2022-08-27T12:28:46.812Z,54405.06
2022-08-27T12:29:49.801Z,54392.03
2022-08-27T12:30:52.977Z,54401.05
2022-08-27T12:31:56.351Z,54389.02
2022-08-27T12:32:59.862Z,54374.99
2022-08-27T12:34:03.339Z,54384.01